createdAt,value
2024-05-09T00:00:06.368Z,2.70
2024-05-09T00:01:03.923Z,2.50
2024-05-09T00:02:03.824Z,2.80
2024-05-09T00:03:03.854Z,2.80
2024-05-09T00:04:03.994Z,14.50
2024-05-09T00:05:03.800Z,80.10
2024-05-09T00:06:03.916Z,54.70
2024-05-09T00:07:03.767Z,35.20
2024-05-09T00:08:03.880Z,25.70
2024-05-09T00:09:03.722Z,8.00
2024-05-09T00:10:05.620Z,19.10
2024-05-09T00:11:03.997Z,19.10
2024-05-09T00:12:03.866Z,47.90
2024-05-09T00:13:03.701Z,21.20
2024-05-09T00:14:03.740Z,12.20
2024-05-09T00:15:03.654Z,9.60
2024-05-09T00:16:03.690Z,9.10
2024-05-09T00:17:03.661Z,6.30
2024-05-09T00:18:04.184Z,9.30
2024-05-09T00:19:03.743Z,9.60
2024-05-09T00:20:09.074Z,9.40
2024-05-09T00:21:03.733Z,7.20
2024-05-09T00:22:03.640Z,22.30
2024-05-09T00:23:03.588Z,10.60
2024-05-09T00:24:03.580Z,6.20
2024-05-09T00:25:03.559Z,3.70
2024-05-09T00:26:03.652Z,3.00
2024-05-09T00:27:03.694Z,3.00
2024-05-09T00:28:03.527Z,2.90
2024-05-09T00:29:03.611Z,2.90
2024-05-09T00:30:04.262Z,3.30
2024-05-09T00:31:03.519Z,2.90
2024-05-09T00:32:03.658Z,2.90
2024-05-09T00:33:04.630Z,3.10
2024-05-09T00:34:03.606Z,2.90
2024-05-09T00:35:03.466Z,2.80
2024-05-09T00:36:03.449Z,3.00
2024-05-09T00:37:03.453Z,2.80
2024-05-09T00:38:03.769Z,2.70
2024-05-09T00:39:03.448Z,3.10
2024-05-09T00:40:03.646Z,2.80
2024-05-09T00:41:03.482Z,2.90
2024-05-09T00:42:03.410Z,3.00
2024-05-09T00:43:03.383Z,3.30
2024-05-09T00:44:03.435Z,2.90
2024-05-09T00:45:03.378Z,2.90
2024-05-09T00:46:03.367Z,2.80
2024-05-09T00:47:03.456Z,3.10
2024-05-09T00:48:03.646Z,3.00
2024-05-09T00:49:03.403Z,3.00
2024-05-09T00:50:04.302Z,3.00
2024-05-09T00:51:03.349Z,3.20
2024-05-09T00:52:03.313Z,2.90
2024-05-09T00:53:03.390Z,3.20
2024-05-09T00:54:03.272Z,3.00
2024-05-09T00:55:03.286Z,3.00
2024-05-09T00:56:03.289Z,3.50
2024-05-09T00:57:03.278Z,3.20
2024-05-09T00:58:03.244Z,3.30
2024-05-09T00:59:03.294Z,3.20
2024-05-09T01:00:04.717Z,3.40
2024-05-09T01:01:03.292Z,3.50
2024-05-09T01:02:03.378Z,3.10
2024-05-09T01:03:03.581Z,3.10
2024-05-09T01:04:03.305Z,3.60
2024-05-09T01:05:03.259Z,3.30
2024-05-09T01:06:03.238Z,3.70
2024-05-09T01:07:03.184Z,3.30
2024-05-09T01:08:03.405Z,3.40
2024-05-09T01:09:03.122Z,3.30
2024-05-09T01:10:04.222Z,3.20
2024-05-09T01:11:03.181Z,3.50
2024-05-09T01:12:03.304Z,3.20
2024-05-09T01:13:03.120Z,3.40
2024-05-09T01:14:03.119Z,3.40
2024-05-09T01:15:03.071Z,3.20
2024-05-09T01:16:03.067Z,3.40
2024-05-09T01:17:03.149Z,3.70
2024-05-09T01:18:03.266Z,3.40
2024-05-09T01:19:03.348Z,3.20
2024-05-09T01:20:04.244Z,3.60
2024-05-09T01:21:03.032Z,3.90
2024-05-09T01:22:03.014Z,3.60
2024-05-09T01:23:03.006Z,4.00
2024-05-09T01:24:02.997Z,3.60
2024-05-09T01:25:02.982Z,3.40
2024-05-09T01:26:03.094Z,3.40
2024-05-09T01:27:02.957Z,3.60
2024-05-09T01:28:02.941Z,3.60
2024-05-09T01:29:02.939Z,3.50
2024-05-09T01:30:05.355Z,3.70
2024-05-09T01:31:02.910Z,3.90
2024-05-09T01:32:03.016Z,3.70
2024-05-09T01:33:03.381Z,3.70
2024-05-09T01:34:02.998Z,3.30
2024-05-09T01:35:02.977Z,3.40
2024-05-09T01:36:02.880Z,3.60
2024-05-09T01:37:02.879Z,3.90
2024-05-09T01:38:02.953Z,3.70
2024-05-09T01:39:02.858Z,3.50
2024-05-09T01:40:03.553Z,3.70
2024-05-09T01:41:02.889Z,3.60
2024-05-09T01:42:02.823Z,3.80
2024-05-09T01:43:02.788Z,3.90
2024-05-09T01:44:02.800Z,3.60
2024-05-09T01:45:02.771Z,3.90
2024-05-09T01:46:02.771Z,3.80
2024-05-09T01:47:02.839Z,3.60
2024-05-09T01:48:03.308Z,4.10
2024-05-09T01:49:02.850Z,6.70
2024-05-09T01:50:03.496Z,33.20
2024-05-09T01:51:02.746Z,21.50
2024-05-09T01:52:02.734Z,16.50
2024-05-09T01:53:02.752Z,17.90
2024-05-09T01:54:02.681Z,16.20
2024-05-09T01:55:05.566Z,8.40
2024-05-09T01:56:02.745Z,5.70
2024-05-09T01:57:02.694Z,4.40
2024-05-09T01:58:02.659Z,41.40
2024-05-09T01:59:02.651Z,33.60
2024-05-09T02:00:03.012Z,21.40
2024-05-09T02:01:02.638Z,7.00
2024-05-09T02:02:02.788Z,4.60
2024-05-09T02:03:02.801Z,4.20
2024-05-09T02:04:02.982Z,3.70
2024-05-09T02:05:02.647Z,3.30
2024-05-09T02:06:02.722Z,3.40
2024-05-09T02:07:02.565Z,3.50
2024-05-09T02:08:02.591Z,3.50
2024-05-09T02:09:02.529Z,3.50
2024-05-09T02:10:06.476Z,3.60
2024-05-09T02:11:02.538Z,3.30
2024-05-09T02:12:02.658Z,3.30
2024-05-09T02:13:02.510Z,3.50
2024-05-09T02:14:02.509Z,3.30
2024-05-09T02:15:02.469Z,3.20
2024-05-09T02:16:02.460Z,3.20
2024-05-09T02:17:02.499Z,3.20
2024-05-09T02:18:02.660Z,3.70
2024-05-09T02:19:02.599Z,3.50
2024-05-09T02:20:02.746Z,3.30
2024-05-09T02:21:02.550Z,3.60
2024-05-09T02:22:02.389Z,3.40
2024-05-09T02:23:02.486Z,3.30
2024-05-09T02:24:02.382Z,3.70
2024-05-09T02:25:02.359Z,3.50
2024-05-09T02:26:02.395Z,3.20
2024-05-09T02:27:02.344Z,3.70
2024-05-09T02:28:02.478Z,3.30
2024-05-09T02:29:02.384Z,3.40
2024-05-09T02:30:02.386Z,3.50
2024-05-09T02:31:02.314Z,3.50
2024-05-09T02:32:02.424Z,3.60
2024-05-09T02:33:02.498Z,3.70
2024-05-09T02:34:02.534Z,3.70
2024-05-09T02:35:02.387Z,3.60
2024-05-09T02:36:02.264Z,3.70
2024-05-09T02:37:02.298Z,3.60
2024-05-09T02:38:02.344Z,3.70
2024-05-09T02:39:02.223Z,3.70
2024-05-09T02:40:02.554Z,4.10
2024-05-09T02:41:02.284Z,3.60
2024-05-09T02:42:02.199Z,4.10
2024-05-09T02:43:02.226Z,3.80
2024-05-09T02:44:02.196Z,3.60
2024-05-09T02:45:02.160Z,3.70
2024-05-09T02:46:02.138Z,3.70
2024-05-09T02:47:02.174Z,4.00
2024-05-09T02:48:02.684Z,3.50
2024-05-09T02:49:02.271Z,3.70
2024-05-09T02:50:02.154Z,3.70
2024-05-09T02:51:02.325Z,3.30
2024-05-09T02:52:02.076Z,3.80
2024-05-09T02:53:02.150Z,3.60
2024-05-09T02:54:02.105Z,3.40
2024-05-09T02:55:02.072Z,3.80
2024-05-09T02:56:02.108Z,3.60
2024-05-09T02:57:02.022Z,3.30
2024-05-09T02:58:02.064Z,3.90
2024-05-09T02:59:02.039Z,3.90
2024-05-09T03:00:02.024Z,3.80
2024-05-09T03:01:02.104Z,4.00
2024-05-09T03:02:02.777Z,3.80
2024-05-09T03:03:02.239Z,3.60
2024-05-09T03:04:02.113Z,3.60
2024-05-09T03:05:01.987Z,3.70
2024-05-09T03:06:01.947Z,3.70
2024-05-09T03:07:01.931Z,3.60
2024-05-09T03:08:01.963Z,4.10
2024-05-09T03:09:01.921Z,3.60
2024-05-09T03:10:01.899Z,3.50
2024-05-09T03:11:01.971Z,3.80
2024-05-09T03:12:01.961Z,3.50
2024-05-09T03:13:01.875Z,3.60
2024-05-09T03:14:01.944Z,3.60
2024-05-09T03:15:01.844Z,3.80
2024-05-09T03:16:01.859Z,3.60
2024-05-09T03:17:01.903Z,3.50
2024-05-09T03:18:02.120Z,3.60
2024-05-09T03:19:01.886Z,3.40
2024-05-09T03:20:01.861Z,3.60
2024-05-09T03:21:01.855Z,3.40
2024-05-09T03:22:01.796Z,3.80
2024-05-09T03:23:01.825Z,3.40
2024-05-09T03:24:01.787Z,3.80
2024-05-09T03:25:01.747Z,3.80
2024-05-09T03:26:01.806Z,3.70
2024-05-09T03:27:01.734Z,3.60
2024-05-09T03:28:01.954Z,3.30
2024-05-09T03:29:01.762Z,3.80
2024-05-09T03:30:02.018Z,3.20
2024-05-09T03:31:01.689Z,3.50
2024-05-09T03:32:01.780Z,3.30
2024-05-09T03:33:01.960Z,3.40
2024-05-09T03:34:01.884Z,3.50
2024-05-09T03:35:01.746Z,3.80
2024-05-09T03:36:01.639Z,3.40
2024-05-09T03:37:01.625Z,3.70
2024-05-09T03:38:01.658Z,3.60
2024-05-09T03:39:01.606Z,3.40
2024-05-09T03:40:01.611Z,3.50
2024-05-09T03:41:01.623Z,3.80
2024-05-09T03:42:01.619Z,3.80
2024-05-09T03:43:01.577Z,3.20
2024-05-09T03:44:01.581Z,3.70
2024-05-09T03:45:01.581Z,3.70
2024-05-09T03:46:01.548Z,3.50
2024-05-09T03:47:01.560Z,3.60
2024-05-09T03:48:01.655Z,3.40
2024-05-09T03:49:01.603Z,3.80
2024-05-09T03:50:01.574Z,3.80
2024-05-09T03:51:01.524Z,3.60
2024-05-09T03:52:01.470Z,3.70
2024-05-09T03:53:01.555Z,3.60
2024-05-09T03:54:01.449Z,3.50
2024-05-09T03:55:01.498Z,3.50
2024-05-09T03:56:01.538Z,3.70
2024-05-09T03:57:01.424Z,3.80
2024-05-09T03:58:01.427Z,3.50
2024-05-09T03:59:01.455Z,3.90
2024-05-09T04:00:01.438Z,3.70
2024-05-09T04:01:01.562Z,3.50
2024-05-09T04:02:01.458Z,4.00
2024-05-09T04:03:01.691Z,3.70
2024-05-09T04:04:01.374Z,4.00
2024-05-09T04:05:01.459Z,3.70
2024-05-09T04:06:01.354Z,3.50
2024-05-09T04:07:01.334Z,3.50
2024-05-09T04:08:01.518Z,3.80
2024-05-09T04:09:01.299Z,4.10
2024-05-09T04:10:01.306Z,4.00
2024-05-09T04:11:01.490Z,3.80
2024-05-09T04:12:01.436Z,3.80
2024-05-09T04:13:01.389Z,3.50
2024-05-09T04:14:01.280Z,3.50
2024-05-09T04:15:01.249Z,4.20
2024-05-09T04:16:01.243Z,3.90
2024-05-09T04:17:01.263Z,3.60
2024-05-09T04:18:02.149Z,3.30
2024-05-09T04:19:01.369Z,3.90
2024-05-09T04:20:01.330Z,3.50
2024-05-09T04:21:01.302Z,3.40
2024-05-09T04:22:01.208Z,3.80
2024-05-09T04:23:01.222Z,3.80
2024-05-09T04:24:01.157Z,3.60
2024-05-09T04:25:01.146Z,4.10
2024-05-09T04:26:01.225Z,3.90
2024-05-09T04:27:01.121Z,3.70
2024-05-09T04:28:01.194Z,3.70
2024-05-09T04:29:01.186Z,4.00
2024-05-09T04:30:01.096Z,3.60
2024-05-09T04:31:01.081Z,3.60
2024-05-09T04:32:01.140Z,3.50
2024-05-09T04:33:01.268Z,3.70
2024-05-09T04:34:01.149Z,3.90
2024-05-09T04:35:01.126Z,3.70
2024-05-09T04:36:01.038Z,3.60
2024-05-09T04:37:01.035Z,4.00
2024-05-09T04:38:01.062Z,8.10
2024-05-09T04:39:00.995Z,7.30
2024-05-09T04:40:00.990Z,5.60
2024-05-09T04:41:01.039Z,9.50
2024-05-09T04:42:00.980Z,6.30
2024-05-09T04:43:01.035Z,4.90
2024-05-09T04:44:01.016Z,4.40
2024-05-09T04:45:00.971Z,4.10
2024-05-09T04:46:00.928Z,4.00
2024-05-09T04:47:00.933Z,3.70
2024-05-09T04:48:01.675Z,3.60
2024-05-09T04:49:01.147Z,11.70
2024-05-09T04:50:00.905Z,19.70
2024-05-09T04:51:00.908Z,6.10
2024-05-09T04:52:00.868Z,4.90
2024-05-09T04:53:00.893Z,4.30
2024-05-09T04:54:00.859Z,9.20
2024-05-09T04:55:00.830Z,13.50
2024-05-09T04:56:00.860Z,12.60
2024-05-09T04:57:00.809Z,7.30
2024-05-09T04:58:00.831Z,6.10
2024-05-09T04:59:00.834Z,5.40
2024-05-09T05:00:00.816Z,7.10
2024-05-09T05:01:00.791Z,5.40
2024-05-09T05:02:00.903Z,4.50
2024-05-09T05:03:00.930Z,4.90
2024-05-09T05:04:00.952Z,5.00
2024-05-09T05:05:00.977Z,5.40
2024-05-09T05:06:00.785Z,5.60
2024-05-09T05:07:02.880Z,5.50
2024-05-09T05:08:00.797Z,4.40
2024-05-09T05:09:00.705Z,4.50
2024-05-09T05:10:00.692Z,4.90
2024-05-09T05:11:00.874Z,4.50
2024-05-09T05:12:00.843Z,5.00
2024-05-09T05:13:00.641Z,4.90
2024-05-09T05:14:00.772Z,4.70
2024-05-09T05:15:00.652Z,9.70
2024-05-09T05:16:00.639Z,13.20
2024-05-09T05:17:00.684Z,5.80
2024-05-09T05:18:00.861Z,4.90
2024-05-09T05:19:00.629Z,5.40
2024-05-09T05:20:00.773Z,5.60
2024-05-09T05:21:00.635Z,5.50
2024-05-09T05:22:00.557Z,5.00
2024-05-09T05:23:00.983Z,8.30
2024-05-09T05:24:00.537Z,27.80
2024-05-09T05:25:00.514Z,8.60
2024-05-09T05:26:00.562Z,5.80
2024-05-09T05:27:00.527Z,4.90
2024-05-09T05:28:00.497Z,4.80
2024-05-09T05:29:00.553Z,4.90
2024-05-09T05:30:00.519Z,4.80
2024-05-09T05:31:00.470Z,6.50
2024-05-09T05:32:00.670Z,5.40
2024-05-09T05:33:00.659Z,6.80
2024-05-09T05:34:00.492Z,8.30
2024-05-09T05:35:00.453Z,14.70
2024-05-09T05:36:00.405Z,9.70
2024-05-09T05:37:00.463Z,6.30
2024-05-09T05:38:00.476Z,6.60
2024-05-09T05:39:00.378Z,5.10
2024-05-09T05:40:00.386Z,4.80
2024-05-09T05:41:00.461Z,5.10
2024-05-09T05:42:01.191Z,4.60
2024-05-09T05:43:00.360Z,4.70
2024-05-09T05:44:00.364Z,4.80
2024-05-09T05:45:00.344Z,5.00
2024-05-09T05:46:00.317Z,4.70
2024-05-09T05:47:00.361Z,4.70
2024-05-09T05:48:00.648Z,5.00
2024-05-09T05:49:00.410Z,5.20
2024-05-09T05:50:00.456Z,4.90
2024-05-09T05:51:02.670Z,4.50
2024-05-09T05:52:00.283Z,4.60
2024-05-09T05:53:00.284Z,5.10
2024-05-09T05:54:00.254Z,5.00
2024-05-09T05:55:00.242Z,4.60
2024-05-09T05:56:00.246Z,5.10
2024-05-09T05:57:00.249Z,4.60
2024-05-09T05:58:00.194Z,5.00
2024-05-09T05:59:00.215Z,5.10
2024-05-09T06:00:00.205Z,4.90
2024-05-09T06:01:00.211Z,4.80
2024-05-09T06:02:00.239Z,5.00
2024-05-09T06:03:00.252Z,5.20
2024-05-09T06:04:00.252Z,5.00
2024-05-09T06:05:00.314Z,4.80
2024-05-09T06:06:00.242Z,5.00
2024-05-09T06:07:00.146Z,5.20
2024-05-09T06:08:00.333Z,5.00
2024-05-09T06:09:00.103Z,5.20
2024-05-09T06:10:00.155Z,5.00
2024-05-09T06:11:00.093Z,5.20
2024-05-09T06:12:00.161Z,5.10
2024-05-09T06:13:00.040Z,5.50
2024-05-09T06:14:00.110Z,5.40
2024-05-09T06:15:00.100Z,5.10
2024-05-09T06:16:00.008Z,4.80
2024-05-09T06:17:00.041Z,4.90
2024-05-09T06:18:00.270Z,5.30
2024-05-09T06:19:00.038Z,4.80
2024-05-09T06:20:00.060Z,4.80
2024-05-09T06:21:00.009Z,4.70
2024-05-09T06:21:59.949Z,5.40
2024-05-09T06:23:00.011Z,4.90
2024-05-09T06:24:00.410Z,5.10
2024-05-09T06:24:59.950Z,5.00
2024-05-09T06:25:59.986Z,4.80
2024-05-09T06:26:59.911Z,5.20
2024-05-09T06:27:59.902Z,5.20
2024-05-09T06:28:59.963Z,4.90
2024-05-09T06:29:59.879Z,4.90
2024-05-09T06:30:59.892Z,5.50
2024-05-09T06:32:00.353Z,4.80
2024-05-09T06:32:59.988Z,5.10
2024-05-09T06:33:59.950Z,5.10
2024-05-09T06:34:59.882Z,5.30
2024-05-09T06:35:59.891Z,5.10
2024-05-09T06:36:59.804Z,5.10
2024-05-09T06:37:59.849Z,5.20
2024-05-09T06:38:59.801Z,5.50
2024-05-09T06:39:59.771Z,5.20
2024-05-09T06:40:59.844Z,5.30
2024-05-09T06:41:59.766Z,5.40
2024-05-09T06:42:59.758Z,4.80
2024-05-09T06:43:59.782Z,5.20
2024-05-09T06:44:59.752Z,5.30
2024-05-09T06:45:59.708Z,5.30
2024-05-09T06:47:00.266Z,4.90
2024-05-09T06:48:00.045Z,5.10
2024-05-09T06:48:59.910Z,4.90
2024-05-09T06:49:59.729Z,5.10
2024-05-09T06:50:59.699Z,5.10
2024-05-09T06:51:59.659Z,5.50
2024-05-09T06:52:59.699Z,5.30
2024-05-09T06:53:59.636Z,5.30
2024-05-09T06:54:59.627Z,5.10
2024-05-09T06:55:59.648Z,5.50
2024-05-09T06:56:59.610Z,5.80
2024-05-09T06:57:59.613Z,5.60
2024-05-09T06:58:59.620Z,5.40
2024-05-09T06:59:59.610Z,5.50
2024-05-09T07:00:59.600Z,5.10
2024-05-09T07:01:59.625Z,5.20
2024-05-09T07:03:01.657Z,5.40
2024-05-09T07:03:59.664Z,5.50
2024-05-09T07:04:59.612Z,5.20
2024-05-09T07:05:59.542Z,5.10
2024-05-09T07:06:59.511Z,5.50
2024-05-09T07:07:59.521Z,5.60
2024-05-09T07:08:59.496Z,5.30
2024-05-09T07:09:59.475Z,5.00
2024-05-09T07:10:59.554Z,5.40
2024-05-09T07:11:59.569Z,5.60
2024-05-09T07:12:59.448Z,5.30
2024-05-09T07:13:59.551Z,5.60
2024-05-09T07:14:59.425Z,5.30
2024-05-09T07:15:59.397Z,5.40
2024-05-09T07:16:59.568Z,4.80
2024-05-09T07:17:59.490Z,5.70
2024-05-09T07:18:59.554Z,5.40
2024-05-09T07:19:59.412Z,5.40
2024-05-09T07:20:59.395Z,5.70
2024-05-09T07:21:59.350Z,5.40
2024-05-09T07:22:59.430Z,5.50
2024-05-09T07:23:59.328Z,5.20
2024-05-09T07:24:59.323Z,5.30
2024-05-09T07:25:59.358Z,5.40
2024-05-09T07:26:59.301Z,5.00
2024-05-09T07:27:59.277Z,5.40
2024-05-09T07:28:59.346Z,5.30
2024-05-09T07:29:59.267Z,5.50
2024-05-09T07:30:59.287Z,5.50
2024-05-09T07:31:59.271Z,5.20
2024-05-09T07:32:59.446Z,5.30
2024-05-09T07:33:59.320Z,5.20
2024-05-09T07:34:59.264Z,5.30
2024-05-09T07:35:59.230Z,4.90
2024-05-09T07:36:59.194Z,5.00
2024-05-09T07:37:59.199Z,5.40
2024-05-09T07:38:59.183Z,5.00
2024-05-09T07:39:59.175Z,5.40
2024-05-09T07:40:59.282Z,5.20
2024-05-09T07:41:59.168Z,5.40
2024-05-09T07:42:59.165Z,5.40
2024-05-09T07:43:59.176Z,5.10
2024-05-09T07:45:11.182Z,4.90
2024-05-09T07:46:23.416Z,4.80
2024-05-09T07:48:29.100Z,5.40
2024-05-09T07:52:22.594Z,5.60
2024-05-09T07:53:42.091Z,5.10
2024-05-09T07:53:53.407Z,5.00
2024-05-09T07:54:44.957Z,4.60
2024-05-09T07:55:44.938Z,4.70
2024-05-09T07:56:44.947Z,4.80
2024-05-09T07:57:44.796Z,4.70
2024-05-09T07:58:44.755Z,4.40
2024-05-09T07:59:44.734Z,4.10
2024-05-09T08:00:44.786Z,4.80
2024-05-09T08:01:44.820Z,4.50
2024-05-09T08:02:44.738Z,4.80
2024-05-09T08:03:44.979Z,4.40
2024-05-09T08:04:44.807Z,4.70
2024-05-09T08:05:44.806Z,4.60
2024-05-09T08:06:44.700Z,4.20
2024-05-09T08:07:44.651Z,4.30
2024-05-09T08:08:44.669Z,4.60
2024-05-09T08:09:44.662Z,4.70
2024-05-09T08:10:44.801Z,4.60
2024-05-09T08:11:44.696Z,4.70
2024-05-09T08:12:44.622Z,4.80
2024-05-09T08:13:44.609Z,4.50
2024-05-09T08:14:44.587Z,5.00
2024-05-09T08:15:44.762Z,4.70
2024-05-09T08:16:44.574Z,4.70
2024-05-09T08:17:44.649Z,4.30
2024-05-09T08:18:44.676Z,4.20
2024-05-09T08:19:44.638Z,3.90
2024-05-09T08:20:44.505Z,4.10
2024-05-09T08:21:44.557Z,4.10
2024-05-09T08:22:44.520Z,3.70
2024-05-09T08:23:44.503Z,4.50
2024-05-09T08:24:44.518Z,4.10
2024-05-09T08:25:44.487Z,4.60
2024-05-09T08:26:44.453Z,4.20
2024-05-09T08:27:44.511Z,4.50
2024-05-09T08:28:44.457Z,4.90
2024-05-09T08:29:44.488Z,4.40
2024-05-09T08:30:44.702Z,4.50
2024-05-09T08:31:44.623Z,4.00
2024-05-09T08:32:44.567Z,4.20
2024-05-09T08:33:44.675Z,3.60
2024-05-09T08:34:44.408Z,4.00
2024-05-09T08:35:44.435Z,4.10
2024-05-09T08:36:44.397Z,5.50
2024-05-09T08:37:44.365Z,5.40
2024-05-09T08:38:44.332Z,6.70
2024-05-09T08:39:44.402Z,8.10
2024-05-09T08:40:44.556Z,8.90
2024-05-09T08:41:44.312Z,4.50
2024-05-09T08:42:44.391Z,4.30
2024-05-09T08:43:44.323Z,3.90
2024-05-09T08:44:44.283Z,3.90
2024-05-09T08:45:45.419Z,3.50
2024-05-09T08:46:44.274Z,4.00
2024-05-09T08:47:44.335Z,6.10
2024-05-09T08:48:44.529Z,10.30
2024-05-09T08:49:44.271Z,7.30
2024-05-09T08:50:45.415Z,4.80
2024-05-09T08:51:44.284Z,4.60
2024-05-09T08:52:44.207Z,4.60
2024-05-09T08:53:44.668Z,4.70
2024-05-09T08:54:44.243Z,4.20
2024-05-09T08:55:44.655Z,4.50
2024-05-09T08:56:44.176Z,4.30
2024-05-09T08:57:44.204Z,4.10
2024-05-09T08:58:44.190Z,4.30
2024-05-09T08:59:44.155Z,4.30
2024-05-09T09:00:44.553Z,4.20
2024-05-09T09:01:44.278Z,4.20
2024-05-09T09:02:44.572Z,4.20
2024-05-09T09:03:44.264Z,4.60
2024-05-09T09:04:44.280Z,4.40
2024-05-09T09:05:44.126Z,4.70
2024-05-09T09:06:44.275Z,4.30
2024-05-09T09:07:44.057Z,5.30
2024-05-09T09:08:44.118Z,5.90
2024-05-09T09:09:44.342Z,4.30
2024-05-09T09:10:44.174Z,4.60
2024-05-09T09:11:44.041Z,4.90
2024-05-09T09:12:44.094Z,4.60
2024-05-09T09:13:43.988Z,4.40
2024-05-09T09:14:44.021Z,4.40
2024-05-09T09:15:44.052Z,5.00
2024-05-09T09:16:43.949Z,4.30
2024-05-09T09:17:44.056Z,4.70
2024-05-09T09:18:44.180Z,6.90
2024-05-09T09:19:43.993Z,5.70
2024-05-09T09:20:44.121Z,4.90
2024-05-09T09:21:44.014Z,4.50
2024-05-09T09:22:43.898Z,4.20
2024-05-09T09:23:43.887Z,5.00
2024-05-09T09:24:43.984Z,4.30
2024-05-09T09:25:43.892Z,3.70
2024-05-09T09:26:43.863Z,4.00
2024-05-09T09:27:43.927Z,4.50
2024-05-09T09:28:43.956Z,4.80
2024-05-09T09:29:43.849Z,3.80
2024-05-09T09:30:43.894Z,3.70
2024-05-09T09:31:43.871Z,3.90
2024-05-09T09:32:43.870Z,3.80
2024-05-09T09:33:44.116Z,3.90
2024-05-09T09:34:43.833Z,8.20
2024-05-09T09:35:43.782Z,4.30
2024-05-09T09:36:43.875Z,4.80
2024-05-09T09:37:43.756Z,4.40
2024-05-09T09:38:43.763Z,4.10
2024-05-09T09:39:43.804Z,3.80
2024-05-09T09:40:48.272Z,4.40
2024-05-09T09:41:43.707Z,4.30
2024-05-09T09:42:43.755Z,4.30
2024-05-09T09:43:43.689Z,4.00
2024-05-09T09:44:47.739Z,4.40
2024-05-09T09:45:43.925Z,4.50
2024-05-09T09:46:43.667Z,4.40
2024-05-09T09:47:43.827Z,4.10
2024-05-09T09:48:43.709Z,3.90
2024-05-09T09:49:43.719Z,4.00
2024-05-09T09:50:43.645Z,3.70
2024-05-09T09:51:43.810Z,4.00
2024-05-09T09:52:43.629Z,4.20
2024-05-09T09:53:43.591Z,4.30
2024-05-09T09:54:43.625Z,4.50
2024-05-09T09:55:43.563Z,4.10
2024-05-09T09:56:43.562Z,4.00
2024-05-09T09:57:43.744Z,4.80
2024-05-09T09:58:43.560Z,4.90
2024-05-09T09:59:43.572Z,4.20
2024-05-09T10:00:44.015Z,3.70
2024-05-09T10:01:43.684Z,3.40
2024-05-09T10:02:43.566Z,3.90
2024-05-09T10:03:43.696Z,3.50
2024-05-09T10:04:43.596Z,3.60
2024-05-09T10:05:46.302Z,3.90
2024-05-09T10:06:43.520Z,4.20
2024-05-09T10:07:43.479Z,4.10
2024-05-09T10:08:43.451Z,4.10
2024-05-09T10:09:43.491Z,4.60
2024-05-09T10:10:43.763Z,4.30
2024-05-09T10:11:49.099Z,5.00
2024-05-09T10:12:43.420Z,4.20
2024-05-09T10:13:43.407Z,4.40
2024-05-09T10:14:43.385Z,4.30
2024-05-09T10:15:43.414Z,4.70
2024-05-09T10:16:43.371Z,4.30
2024-05-09T10:17:43.524Z,4.50
2024-05-09T10:18:43.560Z,4.50
2024-05-09T10:19:43.399Z,4.80
2024-05-09T10:20:43.338Z,4.90
2024-05-09T10:21:43.390Z,4.90
2024-05-09T10:22:43.318Z,5.00
2024-05-09T10:23:43.303Z,5.10
2024-05-09T10:24:43.338Z,4.30
2024-05-09T10:25:43.322Z,4.80
2024-05-09T10:26:43.255Z,4.30
2024-05-09T10:27:43.289Z,3.90
2024-05-09T10:28:43.254Z,4.30
2024-05-09T10:29:43.232Z,4.20
2024-05-09T10:30:43.452Z,5.00
2024-05-09T10:31:43.385Z,5.10
2024-05-09T10:32:43.358Z,4.70
2024-05-09T10:33:43.388Z,4.80
2024-05-09T10:34:43.349Z,4.80
2024-05-09T10:35:43.194Z,5.40
2024-05-09T10:36:43.258Z,6.80
2024-05-09T10:37:43.154Z,6.40
2024-05-09T10:38:43.269Z,6.00
2024-05-09T10:39:43.254Z,8.20
2024-05-09T10:40:43.188Z,5.60
2024-05-09T10:41:43.130Z,5.60
2024-05-09T10:42:43.200Z,5.10
2024-05-09T10:43:43.103Z,5.00
2024-05-09T10:44:43.087Z,5.90
2024-05-09T10:45:43.108Z,5.50
2024-05-09T10:46:43.058Z,5.30
2024-05-09T10:47:43.198Z,4.90
2024-05-09T10:48:43.251Z,5.10
2024-05-09T10:49:43.081Z,5.30
2024-05-09T10:50:43.083Z,5.40
2024-05-09T10:51:43.092Z,5.40
2024-05-09T10:52:43.037Z,5.40
2024-05-09T10:53:43.128Z,5.40
2024-05-09T10:54:43.006Z,5.20
2024-05-09T10:55:43.001Z,5.30
2024-05-09T10:56:43.007Z,4.60
2024-05-09T10:57:43.059Z,5.10
2024-05-09T10:58:43.074Z,4.90
2024-05-09T10:59:42.922Z,4.90
2024-05-09T11:01:43.108Z,5.20
2024-05-09T11:02:43.239Z,5.00
2024-05-09T11:03:43.230Z,4.50
2024-05-09T11:04:43.073Z,4.30
2024-05-09T11:05:43.243Z,4.70
2024-05-09T11:06:42.936Z,4.30
2024-05-09T11:07:42.874Z,3.80
2024-05-09T11:08:42.839Z,4.70
2024-05-09T11:09:42.903Z,5.10
2024-05-09T11:10:43.033Z,5.20
2024-05-09T11:11:42.849Z,5.40
2024-05-09T11:12:42.881Z,4.80
2024-05-09T11:13:42.812Z,4.60
2024-05-09T11:14:42.790Z,5.30
2024-05-09T11:15:42.860Z,5.10
2024-05-09T11:16:42.788Z,5.10
2024-05-09T11:17:42.847Z,4.70
2024-05-09T11:18:42.935Z,4.80
2024-05-09T11:19:42.833Z,4.70
2024-05-09T11:20:42.827Z,4.80
2024-05-09T11:21:42.880Z,5.20
2024-05-09T11:22:42.712Z,6.20
2024-05-09T11:23:42.724Z,6.10
2024-05-09T11:24:42.760Z,5.50
2024-05-09T11:25:42.700Z,4.70
2024-05-09T11:26:42.689Z,4.60
2024-05-09T11:27:42.682Z,4.60
2024-05-09T11:28:42.678Z,4.30
2024-05-09T11:29:42.664Z,4.10
2024-05-09T11:30:42.702Z,4.20
2024-05-09T11:31:42.717Z,4.50
2024-05-09T11:32:42.779Z,4.20
2024-05-09T11:33:42.811Z,4.60
2024-05-09T11:34:42.813Z,4.30
2024-05-09T11:35:42.578Z,4.70
2024-05-09T11:36:42.725Z,3.90
2024-05-09T11:37:42.577Z,4.20
2024-05-09T11:38:42.581Z,3.80
2024-05-09T11:39:42.624Z,4.10
2024-05-09T11:40:42.717Z,3.70
2024-05-09T11:41:42.522Z,3.90
2024-05-09T11:42:42.585Z,4.30
2024-05-09T11:43:42.512Z,3.80
2024-05-09T11:44:42.510Z,3.70
2024-05-09T11:45:42.587Z,3.50
2024-05-09T11:46:42.487Z,3.70
2024-05-09T11:47:42.657Z,3.60
2024-05-09T11:48:42.680Z,3.60
2024-05-09T11:49:42.586Z,3.70
2024-05-09T11:50:42.512Z,3.60
2024-05-09T11:51:42.506Z,3.80
2024-05-09T11:52:42.402Z,3.50
2024-05-09T11:53:42.400Z,3.90
2024-05-09T11:54:42.435Z,4.00
2024-05-09T11:55:42.424Z,3.80
2024-05-09T11:56:42.422Z,3.40
2024-05-09T11:57:42.504Z,3.30
2024-05-09T11:58:42.377Z,3.90
2024-05-09T11:59:42.351Z,4.10
2024-05-09T12:00:42.459Z,3.70
2024-05-09T12:01:42.441Z,3.40
2024-05-09T12:02:42.393Z,3.20
2024-05-09T12:03:42.491Z,3.40
2024-05-09T12:04:42.619Z,3.30
2024-05-09T12:05:42.564Z,3.10
2024-05-09T12:06:42.356Z,2.90
2024-05-09T12:07:42.286Z,2.50
2024-05-09T12:08:42.271Z,2.70
2024-05-09T12:09:42.328Z,2.80
2024-05-09T12:10:42.476Z,3.20
2024-05-09T12:11:42.327Z,3.30
2024-05-09T12:12:42.337Z,3.20
2024-05-09T12:13:42.213Z,2.70
2024-05-09T12:14:42.215Z,3.10
2024-05-09T12:15:42.244Z,3.10
2024-05-09T12:16:42.348Z,3.10
2024-05-09T12:17:42.339Z,3.00
2024-05-09T12:18:42.277Z,3.60
2024-05-09T12:19:42.193Z,3.20
2024-05-09T12:20:42.203Z,3.10
2024-05-09T12:21:42.210Z,3.00
2024-05-09T12:22:42.123Z,3.00
2024-05-09T12:23:42.147Z,2.90
2024-05-09T12:24:42.175Z,3.00
2024-05-09T12:25:42.164Z,3.30
2024-05-09T12:26:42.093Z,3.20
2024-05-09T12:27:42.153Z,3.80
2024-05-09T12:28:42.108Z,3.10
2024-05-09T12:29:42.064Z,3.50
2024-05-09T12:30:42.314Z,3.30
2024-05-09T12:31:42.051Z,3.20
2024-05-09T12:32:42.138Z,3.10
2024-05-09T12:33:42.143Z,3.20
2024-05-09T12:34:42.109Z,3.30
2024-05-09T12:35:44.480Z,3.30
2024-05-09T12:36:42.114Z,3.20
2024-05-09T12:37:41.977Z,3.10
2024-05-09T12:38:41.992Z,3.20
2024-05-09T12:39:42.060Z,3.30
2024-05-09T12:40:42.327Z,3.40
2024-05-09T12:41:41.941Z,3.10
2024-05-09T12:42:42.082Z,3.00
2024-05-09T12:43:41.960Z,3.50
2024-05-09T12:44:41.948Z,3.70
2024-05-09T12:45:41.988Z,3.90
2024-05-09T12:46:41.897Z,3.70
2024-05-09T12:47:41.989Z,3.00
2024-05-09T12:48:42.040Z,3.30
2024-05-09T12:49:41.927Z,3.60
2024-05-09T12:50:42.278Z,3.10
2024-05-09T12:51:41.860Z,4.90
2024-05-09T12:52:41.856Z,4.70
2024-05-09T12:53:41.832Z,26.90
2024-05-09T12:54:41.867Z,15.40
2024-05-09T12:55:48.745Z,9.20
2024-05-09T12:56:41.807Z,4.10
2024-05-09T12:57:41.814Z,3.30
2024-05-09T12:58:41.799Z,3.80
2024-05-09T12:59:41.792Z,3.80
2024-05-09T13:00:41.891Z,3.10
2024-05-09T13:01:41.925Z,3.30
2024-05-09T13:02:41.893Z,2.90
2024-05-09T13:03:42.011Z,3.00
2024-05-09T13:04:41.859Z,3.00
2024-05-09T13:05:42.198Z,3.20
2024-05-09T13:06:41.706Z,2.60
2024-05-09T13:07:41.684Z,2.60
2024-05-09T13:08:41.717Z,3.10
2024-05-09T13:09:41.696Z,3.70
2024-05-09T13:10:41.942Z,10.00
2024-05-09T13:11:41.693Z,6.80
2024-05-09T13:12:41.652Z,3.90
2024-05-09T13:13:41.663Z,3.30
2024-05-09T13:14:41.640Z,2.80
2024-05-09T13:15:41.720Z,2.60
2024-05-09T13:16:41.697Z,2.80
2024-05-09T13:17:41.692Z,2.50
2024-05-09T13:18:41.716Z,2.90
2024-05-09T13:19:41.574Z,2.70
2024-05-09T13:20:41.582Z,2.50
2024-05-09T13:21:41.628Z,2.90